sensor_id;sensor_type;location;lat;lon;timestamp;temperature;humidity
36800;DHT22;22752;51.960;5.886;2023-02-28T00:00:30;0.50;99.90
36800;DHT22;22752;51.960;5.886;2023-02-28T00:02:56;0.60;99.90
36800;DHT22;22752;51.960;5.886;2023-02-28T00:05:24;0.80;99.90
36800;DHT22;22752;51.960;5.886;2023-02-28T00:07:50;1.00;99.90
36800;DHT22;22752;51.960;5.886;2023-02-28T00:10:18;1.20;99.90
36800;DHT22;22752;51.960;5.886;2023-02-28T00:12:52;1.30;99.90
36800;DHT22;22752;51.960;5.886;2023-02-28T00:15:18;1.30;99.90
36800;DHT22;22752;51.960;5.886;2023-02-28T00:17:44;1.40;99.90
36800;DHT22;22752;51.960;5.886;2023-02-28T00:20:12;1.50;99.90
36800;DHT22;22752;51.960;5.886;2023-02-28T00:22:39;1.60;99.90
36800;DHT22;22752;51.960;5.886;2023-02-28T00:25:06;1.60;99.90
36800;DHT22;22752;51.960;5.886;2023-02-28T00:27:35;1.60;99.90
36800;DHT22;22752;51.960;5.886;2023-02-28T00:30:01;1.50;99.90
36800;DHT22;22752;51.960;5.886;2023-02-28T00:32:27;1.60;99.90
36800;DHT22;22752;51.960;5.886;2023-02-28T00:34:53;1.70;99.90
36800;DHT22;22752;51.960;5.886;2023-02-28T00:37:19;1.80;99.90
36800;DHT22;22752;51.960;5.886;2023-02-28T00:39:44;2.00;99.90
36800;DHT22;22752;51.960;5.886;2023-02-28T00:42:10;2.10;99.90
36800;DHT22;22752;51.960;5.886;2023-02-28T00:44:36;2.20;99.90
36800;DHT22;22752;51.960;5.886;2023-02-28T00:47:01;2.20;99.90
36800;DHT22;22752;51.960;5.886;2023-02-28T00:49:27;2.30;99.90
36800;DHT22;22752;51.960;5.886;2023-02-28T00:51:54;2.40;99.90
36800;DHT22;22752;51.960;5.886;2023-02-28T00:54:20;2.40;99.90
36800;DHT22;22752;51.960;5.886;2023-02-28T00:56:46;2.50;99.90
36800;DHT22;22752;51.960;5.886;2023-02-28T00:59:13;2.60;99.90
36800;DHT22;22752;51.960;5.886;2023-02-28T01:01:39;2.60;99.90
36800;DHT22;22752;51.960;5.886;2023-02-28T01:04:05;2.60;99.90
36800;DHT22;22752;51.960;5.886;2023-02-28T01:06:31;2.70;99.90
36800;DHT22;22752;51.960;5.886;2023-02-28T01:08:57;2.70;99.90
36800;DHT22;22752;51.960;5.886;2023-02-28T01:11:23;2.70;99.90
36800;DHT22;22752;51.960;5.886;2023-02-28T01:13:49;2.80;99.90
36800;DHT22;22752;51.960;5.886;2023-02-28T01:16:15;2.90;99.90
36800;DHT22;22752;51.960;5.886;2023-02-28T01:18:40;2.90;99.90
36800;DHT22;22752;51.960;5.886;2023-02-28T01:21:15;2.90;99.90
36800;DHT22;22752;51.960;5.886;2023-02-28T01:23:42;2.90;99.90
36800;DHT22;22752;51.960;5.886;2023-02-28T01:26:16;3.00;99.90
36800;DHT22;22752;51.960;5.886;2023-02-28T01:28:42;3.00;99.90
36800;DHT22;22752;51.960;5.886;2023-02-28T01:31:08;3.00;99.90
36800;DHT22;22752;51.960;5.886;2023-02-28T01:33:34;3.00;99.90
36800;DHT22;22752;51.960;5.886;2023-02-28T01:36:02;2.90;99.90
36800;DHT22;22752;51.960;5.886;2023-02-28T01:38:28;3.00;99.90
36800;DHT22;22752;51.960;5.886;2023-02-28T01:40:54;3.00;99.90
36800;DHT22;22752;51.960;5.886;2023-02-28T01:43:25;3.00;99.90
36800;DHT22;22752;51.960;5.886;2023-02-28T01:45:53;3.00;99.90
36800;DHT22;22752;51.960;5.886;2023-02-28T01:48:21;3.00;99.90
36800;DHT22;22752;51.960;5.886;2023-02-28T01:50:48;3.00;99.90
36800;DHT22;22752;51.960;5.886;2023-02-28T01:53:18;3.00;99.90
36800;DHT22;22752;51.960;5.886;2023-02-28T01:55:47;3.00;99.90
36800;DHT22;22752;51.960;5.886;2023-02-28T01:58:14;3.00;99.90
36800;DHT22;22752;51.960;5.886;2023-02-28T02:00:40;3.00;99.90
36800;DHT22;22752;51.960;5.886;2023-02-28T02:03:13;3.00;99.90
36800;DHT22;22752;51.960;5.886;2023-02-28T02:05:40;3.00;99.90
36800;DHT22;22752;51.960;5.886;2023-02-28T02:08:12;3.00;99.90
36800;DHT22;22752;51.960;5.886;2023-02-28T02:10:54;3.00;99.90
36800;DHT22;22752;51.960;5.886;2023-02-28T02:19:42;2.90;99.90
36800;DHT22;22752;51.960;5.886;2023-02-28T02:22:27;2.90;99.90
36800;DHT22;22752;51.960;5.886;2023-02-28T02:30:14;3.00;99.90
36800;DHT22;22752;51.960;5.886;2023-02-28T02:43:53;3.00;99.90
36800;DHT22;22752;51.960;5.886;2023-02-28T02:46:32;3.10;99.90
36800;DHT22;22752;51.960;5.886;2023-02-28T02:49:01;3.10;99.90
36800;DHT22;22752;51.960;5.886;2023-02-28T02:51:31;3.10;99.90
36800;DHT22;22752;51.960;5.886;2023-02-28T02:54:05;3.10;99.90
36800;DHT22;22752;51.960;5.886;2023-02-28T02:56:33;3.10;99.90
36800;DHT22;22752;51.960;5.886;2023-02-28T02:59:03;3.10;99.90
36800;DHT22;22752;51.960;5.886;2023-02-28T03:01:31;3.10;99.90
36800;DHT22;22752;51.960;5.886;2023-02-28T03:03:57;3.10;99.90
36800;DHT22;22752;51.960;5.886;2023-02-28T03:06:24;3.10;99.90
36800;DHT22;22752;51.960;5.886;2023-02-28T03:08:49;3.10;99.90
36800;DHT22;22752;51.960;5.886;2023-02-28T03:11:15;3.10;99.90
36800;DHT22;22752;51.960;5.886;2023-02-28T03:22:11;3.10;99.90
36800;DHT22;22752;51.960;5.886;2023-02-28T03:24:49;3.10;99.90
36800;DHT22;22752;51.960;5.886;2023-02-28T03:27:29;3.00;99.90
36800;DHT22;22752;51.960;5.886;2023-02-28T03:30:09;3.00;99.90
36800;DHT22;22752;51.960;5.886;2023-02-28T03:32:48;3.10;99.90
36800;DHT22;22752;51.960;5.886;2023-02-28T03:36:05;3.10;99.90
36800;DHT22;22752;51.960;5.886;2023-02-28T03:38:36;3.00;99.90
36800;DHT22;22752;51.960;5.886;2023-02-28T03:41:14;3.00;99.90
36800;DHT22;22752;51.960;5.886;2023-02-28T03:43:45;3.10;99.90
36800;DHT22;22752;51.960;5.886;2023-02-28T03:46:16;3.10;99.90
36800;DHT22;22752;51.960;5.886;2023-02-28T03:48:51;3.10;99.90
36800;DHT22;22752;51.960;5.886;2023-02-28T03:51:19;3.10;99.90
36800;DHT22;22752;51.960;5.886;2023-02-28T03:53:56;3.00;99.90
36800;DHT22;22752;51.960;5.886;2023-02-28T03:56:37;3.00;99.90
36800;DHT22;22752;51.960;5.886;2023-02-28T03:59:27;3.00;99.90
36800;DHT22;22752;51.960;5.886;2023-02-28T04:01:54;3.00;99.90
36800;DHT22;22752;51.960;5.886;2023-02-28T04:04:21;3.00;99.90
36800;DHT22;22752;51.960;5.886;2023-02-28T04:06:53;3.00;99.90
36800;DHT22;22752;51.960;5.886;2023-02-28T04:09:26;3.00;99.90
36800;DHT22;22752;51.960;5.886;2023-02-28T04:11:52;2.90;99.90
36800;DHT22;22752;51.960;5.886;2023-02-28T04:14:18;3.00;99.90
36800;DHT22;22752;51.960;5.886;2023-02-28T04:16:45;3.00;99.90
36800;DHT22;22752;51.960;5.886;2023-02-28T04:19:12;2.90;99.90
36800;DHT22;22752;51.960;5.886;2023-02-28T04:21:40;2.80;99.90
36800;DHT22;22752;51.960;5.886;2023-02-28T04:24:08;2.90;99.90
36800;DHT22;22752;51.960;5.886;2023-02-28T04:26:39;2.90;99.90
36800;DHT22;22752;51.960;5.886;2023-02-28T04:29:05;3.00;99.90
36800;DHT22;22752;51.960;5.886;2023-02-28T04:31:31;2.90;99.90
36800;DHT22;22752;51.960;5.886;2023-02-28T04:33:57;2.90;99.90
36800;DHT22;22752;51.960;5.886;2023-02-28T04:36:23;2.90;99.90
36800;DHT22;22752;51.960;5.886;2023-02-28T04:38:49;3.00;99.90
36800;DHT22;22752;51.960;5.886;2023-02-28T04:41:15;3.00;99.90
36800;DHT22;22752;51.960;5.886;2023-02-28T04:43:42;3.00;99.90
36800;DHT22;22752;51.960;5.886;2023-02-28T04:46:08;3.00;99.90
36800;DHT22;22752;51.960;5.886;2023-02-28T04:48:36;3.00;99.90
36800;DHT22;22752;51.960;5.886;2023-02-28T04:51:13;3.00;99.90
36800;DHT22;22752;51.960;5.886;2023-02-28T04:53:40;3.00;99.90
36800;DHT22;22752;51.960;5.886;2023-02-28T04:56:07;3.00;99.90
36800;DHT22;22752;51.960;5.886;2023-02-28T04:58:34;3.00;99.90
36800;DHT22;22752;51.960;5.886;2023-02-28T05:01:27;3.00;99.90
36800;DHT22;22752;51.960;5.886;2023-02-28T05:03:55;2.90;99.90
36800;DHT22;22752;51.960;5.886;2023-02-28T05:06:23;2.90;99.90
36800;DHT22;22752;51.960;5.886;2023-02-28T05:08:49;2.90;99.90
36800;DHT22;22752;51.960;5.886;2023-02-28T05:11:29;2.80;99.90
36800;DHT22;22752;51.960;5.886;2023-02-28T05:14:00;2.80;99.90
36800;DHT22;22752;51.960;5.886;2023-02-28T05:16:26;2.80;99.90
36800;DHT22;22752;51.960;5.886;2023-02-28T05:18:52;2.80;99.90
36800;DHT22;22752;51.960;5.886;2023-02-28T05:21:39;2.80;99.90
36800;DHT22;22752;51.960;5.886;2023-02-28T05:24:14;2.70;99.90
36800;DHT22;22752;51.960;5.886;2023-02-28T05:26:41;2.70;99.90
36800;DHT22;22752;51.960;5.886;2023-02-28T05:29:07;2.70;99.90
36800;DHT22;22752;51.960;5.886;2023-02-28T05:31:33;2.60;99.90
36800;DHT22;22752;51.960;5.886;2023-02-28T05:33:59;2.70;99.90
36800;DHT22;22752;51.960;5.886;2023-02-28T05:36:25;2.60;99.90
36800;DHT22;22752;51.960;5.886;2023-02-28T05:38:51;2.60;99.90
36800;DHT22;22752;51.960;5.886;2023-02-28T05:41:17;2.60;99.90
36800;DHT22;22752;51.960;5.886;2023-02-28T05:43:45;2.70;99.90
36800;DHT22;22752;51.960;5.886;2023-02-28T05:46:11;2.60;99.90
36800;DHT22;22752;51.960;5.886;2023-02-28T05:48:39;2.60;99.90
36800;DHT22;22752;51.960;5.886;2023-02-28T05:51:06;2.60;99.90
36800;DHT22;22752;51.960;5.886;2023-02-28T05:53:32;2.60;99.90
36800;DHT22;22752;51.960;5.886;2023-02-28T05:55:58;2.70;99.90
36800;DHT22;22752;51.960;5.886;2023-02-28T05:58:24;2.60;99.90
36800;DHT22;22752;51.960;5.886;2023-02-28T06:01:00;2.60;99.90
36800;DHT22;22752;51.960;5.886;2023-02-28T06:03:27;2.70;99.90
36800;DHT22;22752;51.960;5.886;2023-02-28T06:05:53;2.70;99.90
36800;DHT22;22752;51.960;5.886;2023-02-28T06:08:18;2.70;99.90
36800;DHT22;22752;51.960;5.886;2023-02-28T06:10:44;2.70;99.90
36800;DHT22;22752;51.960;5.886;2023-02-28T06:13:10;2.70;99.90
36800;DHT22;22752;51.960;5.886;2023-02-28T06:15:38;2.70;99.90
36800;DHT22;22752;51.960;5.886;2023-02-28T06:18:04;2.70;99.90
36800;DHT22;22752;51.960;5.886;2023-02-28T06:20:30;2.70;99.90
36800;DHT22;22752;51.960;5.886;2023-02-28T06:22:58;2.60;99.90
36800;DHT22;22752;51.960;5.886;2023-02-28T06:25:26;2.70;99.90
36800;DHT22;22752;51.960;5.886;2023-02-28T06:27:51;2.60;99.90
36800;DHT22;22752;51.960;5.886;2023-02-28T06:30:17;2.70;99.90
36800;DHT22;22752;51.960;5.886;2023-02-28T06:32:43;2.70;99.90
36800;DHT22;22752;51.960;5.886;2023-02-28T06:35:09;2.70;99.90
36800;DHT22;22752;51.960;5.886;2023-02-28T06:37:35;2.70;99.90
36800;DHT22;22752;51.960;5.886;2023-02-28T06:40:01;2.70;99.90
36800;DHT22;22752;51.960;5.886;2023-02-28T06:42:27;2.80;99.90
36800;DHT22;22752;51.960;5.886;2023-02-28T06:44:57;2.80;99.90
36800;DHT22;22752;51.960;5.886;2023-02-28T06:47:23;2.80;99.90
36800;DHT22;22752;51.960;5.886;2023-02-28T06:49:49;2.90;99.90
36800;DHT22;22752;51.960;5.886;2023-02-28T06:52:15;2.90;99.90
36800;DHT22;22752;51.960;5.886;2023-02-28T06:54:40;3.00;99.90
36800;DHT22;22752;51.960;5.886;2023-02-28T06:57:06;3.00;99.90
36800;DHT22;22752;51.960;5.886;2023-02-28T06:59:32;3.10;99.90
36800;DHT22;22752;51.960;5.886;2023-02-28T07:01:58;3.10;99.90
36800;DHT22;22752;51.960;5.886;2023-02-28T07:04:23;3.20;99.90
36800;DHT22;22752;51.960;5.886;2023-02-28T07:06:49;3.30;99.90
36800;DHT22;22752;51.960;5.886;2023-02-28T07:09:15;3.20;99.90
36800;DHT22;22752;51.960;5.886;2023-02-28T07:11:41;3.30;99.90
36800;DHT22;22752;51.960;5.886;2023-02-28T07:14:08;3.30;99.90
36800;DHT22;22752;51.960;5.886;2023-02-28T07:16:35;3.40;99.90
36800;DHT22;22752;51.960;5.886;2023-02-28T07:19:00;3.50;99.90
36800;DHT22;22752;51.960;5.886;2023-02-28T07:21:26;3.50;99.90
36800;DHT22;22752;51.960;5.886;2023-02-28T07:23:52;3.50;99.90
36800;DHT22;22752;51.960;5.886;2023-02-28T07:26:19;3.50;99.90
36800;DHT22;22752;51.960;5.886;2023-02-28T07:28:47;3.50;99.90
36800;DHT22;22752;51.960;5.886;2023-02-28T07:31:13;3.50;99.90
36800;DHT22;22752;51.960;5.886;2023-02-28T07:33:40;3.50;99.90
36800;DHT22;22752;51.960;5.886;2023-02-28T07:36:11;3.50;99.90
36800;DHT22;22752;51.960;5.886;2023-02-28T07:38:42;3.50;99.90
36800;DHT22;22752;51.960;5.886;2023-02-28T07:41:09;3.50;99.90
36800;DHT22;22752;51.960;5.886;2023-02-28T07:43:35;3.50;99.90
36800;DHT22;22752;51.960;5.886;2023-02-28T07:46:03;3.60;99.90
36800;DHT22;22752;51.960;5.886;2023-02-28T07:48:28;3.80;99.90
36800;DHT22;22752;51.960;5.886;2023-02-28T07:50:55;3.90;99.90
36800;DHT22;22752;51.960;5.886;2023-02-28T07:53:21;4.10;99.90
36800;DHT22;22752;51.960;5.886;2023-02-28T07:55:47;4.60;99.90
36800;DHT22;22752;51.960;5.886;2023-02-28T07:58:13;5.10;99.90
36800;DHT22;22752;51.960;5.886;2023-02-28T08:00:39;5.50;99.90
36800;DHT22;22752;51.960;5.886;2023-02-28T08:03:04;5.80;99.90
36800;DHT22;22752;51.960;5.886;2023-02-28T08:05:30;5.90;99.90
36800;DHT22;22752;51.960;5.886;2023-02-28T08:07:56;5.90;99.90
36800;DHT22;22752;51.960;5.886;2023-02-28T08:10:22;6.00;99.10
36800;DHT22;22752;51.960;5.886;2023-02-28T08:12:49;6.20;98.40
36800;DHT22;22752;51.960;5.886;2023-02-28T08:15:15;6.30;98.70
36800;DHT22;22752;51.960;5.886;2023-02-28T08:17:40;6.40;97.40
36800;DHT22;22752;51.960;5.886;2023-02-28T08:20:06;6.50;98.20
36800;DHT22;22752;51.960;5.886;2023-02-28T08:22:35;6.70;97.10
36800;DHT22;22752;51.960;5.886;2023-02-28T08:25:01;6.70;95.80
36800;DHT22;22752;51.960;5.886;2023-02-28T08:27:26;6.70;95.60
36800;DHT22;22752;51.960;5.886;2023-02-28T08:29:52;6.70;95.90
36800;DHT22;22752;51.960;5.886;2023-02-28T08:32:18;6.90;95.50
36800;DHT22;22752;51.960;5.886;2023-02-28T08:34:43;6.90;94.60
36800;DHT22;22752;51.960;5.886;2023-02-28T08:37:09;6.70;94.00
36800;DHT22;22752;51.960;5.886;2023-02-28T08:39:35;6.40;93.40
36800;DHT22;22752;51.960;5.886;2023-02-28T08:42:02;6.10;93.40
36800;DHT22;22752;51.960;5.886;2023-02-28T08:44:28;5.80;92.30
36800;DHT22;22752;51.960;5.886;2023-02-28T08:46:54;5.50;91.80
36800;DHT22;22752;51.960;5.886;2023-02-28T08:49:20;5.30;91.80
36800;DHT22;22752;51.960;5.886;2023-02-28T08:51:45;5.10;91.70
36800;DHT22;22752;51.960;5.886;2023-02-28T08:54:11;4.90;91.60
36800;DHT22;22752;51.960;5.886;2023-02-28T08:56:45;4.80;91.60
36800;DHT22;22752;51.960;5.886;2023-02-28T08:59:11;4.70;91.90
36800;DHT22;22752;51.960;5.886;2023-02-28T09:01:37;4.70;92.40
36800;DHT22;22752;51.960;5.886;2023-02-28T09:04:02;4.70;92.30
36800;DHT22;22752;51.960;5.886;2023-02-28T09:06:28;4.70;92.50
36800;DHT22;22752;51.960;5.886;2023-02-28T09:08:57;4.70;91.80
36800;DHT22;22752;51.960;5.886;2023-02-28T09:11:27;4.70;91.40
36800;DHT22;22752;51.960;5.886;2023-02-28T09:13:53;4.60;90.80
36800;DHT22;22752;51.960;5.886;2023-02-28T09:16:20;4.60;91.10
36800;DHT22;22752;51.960;5.886;2023-02-28T09:18:46;4.70;92.00
36800;DHT22;22752;51.960;5.886;2023-02-28T09:21:14;4.80;91.60
36800;DHT22;22752;51.960;5.886;2023-02-28T09:23:42;4.80;90.80
36800;DHT22;22752;51.960;5.886;2023-02-28T09:26:11;4.80;90.00
36800;DHT22;22752;51.960;5.886;2023-02-28T09:28:38;4.80;89.00
36800;DHT22;22752;51.960;5.886;2023-02-28T09:31:03;4.80;89.70
36800;DHT22;22752;51.960;5.886;2023-02-28T09:33:30;4.80;89.80
36800;DHT22;22752;51.960;5.886;2023-02-28T09:36:00;4.80;88.10
36800;DHT22;22752;51.960;5.886;2023-02-28T09:38:27;4.80;88.10
36800;DHT22;22752;51.960;5.886;2023-02-28T09:41:00;4.70;87.80
36800;DHT22;22752;51.960;5.886;2023-02-28T09:43:31;4.70;87.20
36800;DHT22;22752;51.960;5.886;2023-02-28T09:46:32;4.60;88.60
36800;DHT22;22752;51.960;5.886;2023-02-28T09:49:07;4.60;89.10
36800;DHT22;22752;51.960;5.886;2023-02-28T09:54:11;4.60;88.20
36800;DHT22;22752;51.960;5.886;2023-02-28T09:56:40;4.60;88.40
36800;DHT22;22752;51.960;5.886;2023-02-28T10:04:59;4.70;89.60
36800;DHT22;22752;51.960;5.886;2023-02-28T10:15:41;4.70;89.50
36800;DHT22;22752;51.960;5.886;2023-02-28T10:18:13;4.80;88.40
36800;DHT22;22752;51.960;5.886;2023-02-28T10:20:41;4.80;88.30
36800;DHT22;22752;51.960;5.886;2023-02-28T10:23:19;4.80;88.50
36800;DHT22;22752;51.960;5.886;2023-02-28T10:25:51;4.80;88.00
36800;DHT22;22752;51.960;5.886;2023-02-28T10:28:18;4.80;87.00
36800;DHT22;22752;51.960;5.886;2023-02-28T10:30:47;4.80;86.50
36800;DHT22;22752;51.960;5.886;2023-02-28T10:33:28;4.80;86.60
36800;DHT22;22752;51.960;5.886;2023-02-28T10:35:55;4.90;86.50
36800;DHT22;22752;51.960;5.886;2023-02-28T10:38:23;4.90;85.80
36800;DHT22;22752;51.960;5.886;2023-02-28T10:40:50;4.90;86.60
36800;DHT22;22752;51.960;5.886;2023-02-28T10:46:15;5.00;87.30
36800;DHT22;22752;51.960;5.886;2023-02-28T10:49:03;5.10;88.00
36800;DHT22;22752;51.960;5.886;2023-02-28T10:51:39;5.30;88.20
36800;DHT22;22752;51.960;5.886;2023-02-28T10:54:13;5.30;88.40
36800;DHT22;22752;51.960;5.886;2023-02-28T10:56:41;5.30;86.70
36800;DHT22;22752;51.960;5.886;2023-02-28T10:59:29;5.30;86.80
36800;DHT22;22752;51.960;5.886;2023-02-28T11:01:55;5.30;88.60
36800;DHT22;22752;51.960;5.886;2023-02-28T11:09:55;5.30;87.60
36800;DHT22;22752;51.960;5.886;2023-02-28T11:12:54;5.30;87.80
36800;DHT22;22752;51.960;5.886;2023-02-28T11:15:31;5.30;87.40
36800;DHT22;22752;51.960;5.886;2023-02-28T11:18:00;5.20;87.20
36800;DHT22;22752;51.960;5.886;2023-02-28T11:20:29;5.30;87.10
36800;DHT22;22752;51.960;5.886;2023-02-28T11:22:56;5.20;86.20
36800;DHT22;22752;51.960;5.886;2023-02-28T11:25:32;5.20;86.70
36800;DHT22;22752;51.960;5.886;2023-02-28T11:28:01;5.10;86.20
36800;DHT22;22752;51.960;5.886;2023-02-28T11:30:34;5.20;87.40
36800;DHT22;22752;51.960;5.886;2023-02-28T11:33:18;5.30;87.90
36800;DHT22;22752;51.960;5.886;2023-02-28T11:35:48;5.40;86.60
36800;DHT22;22752;51.960;5.886;2023-02-28T11:38:14;5.40;85.20
36800;DHT22;22752;51.960;5.886;2023-02-28T11:51:28;5.60;85.60
36800;DHT22;22752;51.960;5.886;2023-02-28T11:56:37;5.60;84.50
36800;DHT22;22752;51.960;5.886;2023-02-28T12:10:24;5.60;84.90
36800;DHT22;22752;51.960;5.886;2023-02-28T12:26:57;5.70;84.10
36800;DHT22;22752;51.960;5.886;2023-02-28T12:32:11;5.70;84.80
36800;DHT22;22752;51.960;5.886;2023-02-28T12:34:46;5.70;84.20
36800;DHT22;22752;51.960;5.886;2023-02-28T12:37:27;5.70;82.90
36800;DHT22;22752;51.960;5.886;2023-02-28T12:40:01;5.70;84.10
36800;DHT22;22752;51.960;5.886;2023-02-28T12:42:41;5.70;84.10
36800;DHT22;22752;51.960;5.886;2023-02-28T12:45:17;5.70;84.50
36800;DHT22;22752;51.960;5.886;2023-02-28T12:47:47;5.80;83.70
36800;DHT22;22752;51.960;5.886;2023-02-28T12:50:15;5.80;82.30
36800;DHT22;22752;51.960;5.886;2023-02-28T13:09:30;5.80;83.80
36800;DHT22;22752;51.960;5.886;2023-02-28T13:11:57;5.90;82.20
36800;DHT22;22752;51.960;5.886;2023-02-28T13:17:00;6.00;82.00
36800;DHT22;22752;51.960;5.886;2023-02-28T13:19:32;6.00;82.60
36800;DHT22;22752;51.960;5.886;2023-02-28T13:21:59;6.00;82.20
36800;DHT22;22752;51.960;5.886;2023-02-28T13:24:44;6.00;81.20
36800;DHT22;22752;51.960;5.886;2023-02-28T13:27:20;6.00;80.30
36800;DHT22;22752;51.960;5.886;2023-02-28T13:29:51;6.10;80.70
36800;DHT22;22752;51.960;5.886;2023-02-28T13:32:34;6.10;80.10
36800;DHT22;22752;51.960;5.886;2023-02-28T13:37:34;6.10;80.90
36800;DHT22;22752;51.960;5.886;2023-02-28T13:40:27;6.10;79.70
36800;DHT22;22752;51.960;5.886;2023-02-28T13:42:53;6.20;81.50
36800;DHT22;22752;51.960;5.886;2023-02-28T13:56:42;6.20;79.80
36800;DHT22;22752;51.960;5.886;2023-02-28T14:02:30;6.30;80.30
36800;DHT22;22752;51.960;5.886;2023-02-28T14:05:14;6.30;81.40
36800;DHT22;22752;51.960;5.886;2023-02-28T14:07:57;6.30;80.30
36800;DHT22;22752;51.960;5.886;2023-02-28T14:10:39;6.40;80.00
36800;DHT22;22752;51.960;5.886;2023-02-28T14:15:45;6.40;79.80
36800;DHT22;22752;51.960;5.886;2023-02-28T14:18:26;6.40;79.20
36800;DHT22;22752;51.960;5.886;2023-02-28T14:21:01;6.40;80.50
36800;DHT22;22752;51.960;5.886;2023-02-28T14:29:00;6.40;80.70
36800;DHT22;22752;51.960;5.886;2023-02-28T14:31:43;6.40;79.80
36800;DHT22;22752;51.960;5.886;2023-02-28T14:36:58;6.30;80.40
36800;DHT22;22752;51.960;5.886;2023-02-28T14:39:26;6.30;80.60
36800;DHT22;22752;51.960;5.886;2023-02-28T14:41:53;6.30;81.00
36800;DHT22;22752;51.960;5.886;2023-02-28T14:44:26;6.40;80.30
36800;DHT22;22752;51.960;5.886;2023-02-28T14:46:55;6.40;80.50
36800;DHT22;22752;51.960;5.886;2023-02-28T14:49:24;6.30;79.80
36800;DHT22;22752;51.960;5.886;2023-02-28T14:52:06;6.30;81.40
36800;DHT22;22752;51.960;5.886;2023-02-28T14:54:36;6.30;81.20
36800;DHT22;22752;51.960;5.886;2023-02-28T14:57:02;6.40;80.60
36800;DHT22;22752;51.960;5.886;2023-02-28T14:59:37;6.30;80.10
36800;DHT22;22752;51.960;5.886;2023-02-28T15:02:17;6.30;80.00
36800;DHT22;22752;51.960;5.886;2023-02-28T15:04:43;6.30;80.50
36800;DHT22;22752;51.960;5.886;2023-02-28T15:07:17;6.30;80.40
36800;DHT22;22752;51.960;5.886;2023-02-28T15:09:42;6.20;80.40
36800;DHT22;22752;51.960;5.886;2023-02-28T15:12:14;6.20;81.50
36800;DHT22;22752;51.960;5.886;2023-02-28T15:14:43;6.30;80.70
36800;DHT22;22752;51.960;5.886;2023-02-28T15:17:17;6.30;79.50
36800;DHT22;22752;51.960;5.886;2023-02-28T15:19:49;6.20;79.90
36800;DHT22;22752;51.960;5.886;2023-02-28T15:22:17;6.20;81.10
36800;DHT22;22752;51.960;5.886;2023-02-28T15:24:47;6.20;80.50
36800;DHT22;22752;51.960;5.886;2023-02-28T15:27:29;6.20;80.70
36800;DHT22;22752;51.960;5.886;2023-02-28T15:29:59;6.20;79.80
36800;DHT22;22752;51.960;5.886;2023-02-28T15:32:32;6.20;80.40
36800;DHT22;22752;51.960;5.886;2023-02-28T15:37:53;6.20;80.20
36800;DHT22;22752;51.960;5.886;2023-02-28T15:40:35;6.20;81.00
36800;DHT22;22752;51.960;5.886;2023-02-28T15:43:28;6.10;81.40
36800;DHT22;22752;51.960;5.886;2023-02-28T15:46:11;6.10;81.20
36800;DHT22;22752;51.960;5.886;2023-02-28T15:48:57;6.10;81.80
36800;DHT22;22752;51.960;5.886;2023-02-28T15:51:35;6.00;81.10
36800;DHT22;22752;51.960;5.886;2023-02-28T15:54:05;6.00;81.90
36800;DHT22;22752;51.960;5.886;2023-02-28T15:56:44;5.90;81.40
36800;DHT22;22752;51.960;5.886;2023-02-28T15:59:20;5.90;81.90
36800;DHT22;22752;51.960;5.886;2023-02-28T16:01:47;5.90;82.00
36800;DHT22;22752;51.960;5.886;2023-02-28T16:04:16;5.90;81.50
36800;DHT22;22752;51.960;5.886;2023-02-28T16:07:00;5.90;81.40
36800;DHT22;22752;51.960;5.886;2023-02-28T16:09:26;5.90;81.40
36800;DHT22;22752;51.960;5.886;2023-02-28T16:11:54;5.80;82.10
36800;DHT22;22752;51.960;5.886;2023-02-28T16:14:26;5.80;82.40
36800;DHT22;22752;51.960;5.886;2023-02-28T16:17:23;5.80;82.50
36800;DHT22;22752;51.960;5.886;2023-02-28T16:19:50;5.70;83.10
36800;DHT22;22752;51.960;5.886;2023-02-28T16:22:15;5.70;82.80
36800;DHT22;22752;51.960;5.886;2023-02-28T16:24:41;5.70;82.20
36800;DHT22;22752;51.960;5.886;2023-02-28T16:27:21;5.60;82.70
36800;DHT22;22752;51.960;5.886;2023-02-28T16:29:49;5.60;83.10
36800;DHT22;22752;51.960;5.886;2023-02-28T16:32:15;5.60;83.20
36800;DHT22;22752;51.960;5.886;2023-02-28T16:34:43;5.60;83.20
36800;DHT22;22752;51.960;5.886;2023-02-28T16:37:13;5.60;83.30
36800;DHT22;22752;51.960;5.886;2023-02-28T16:39:40;5.50;83.50
36800;DHT22;22752;51.960;5.886;2023-02-28T16:42:23;5.50;83.30
36800;DHT22;22752;51.960;5.886;2023-02-28T16:44:51;5.50;84.30
36800;DHT22;22752;51.960;5.886;2023-02-28T16:47:18;5.40;84.30
36800;DHT22;22752;51.960;5.886;2023-02-28T16:49:44;5.40;84.90
36800;DHT22;22752;51.960;5.886;2023-02-28T16:52:10;5.30;85.50
36800;DHT22;22752;51.960;5.886;2023-02-28T16:54:38;5.20;85.70
36800;DHT22;22752;51.960;5.886;2023-02-28T16:57:05;5.10;86.20
36800;DHT22;22752;51.960;5.886;2023-02-28T16:59:31;5.00;86.20
36800;DHT22;22752;51.960;5.886;2023-02-28T17:01:57;5.10;86.60
36800;DHT22;22752;51.960;5.886;2023-02-28T17:04:25;5.00;86.80
36800;DHT22;22752;51.960;5.886;2023-02-28T17:06:51;4.90;87.70
36800;DHT22;22752;51.960;5.886;2023-02-28T17:09:22;4.90;87.30
36800;DHT22;22752;51.960;5.886;2023-02-28T17:11:48;4.80;87.30
36800;DHT22;22752;51.960;5.886;2023-02-28T17:14:14;4.80;87.40
36800;DHT22;22752;51.960;5.886;2023-02-28T17:16:41;4.90;87.00
36800;DHT22;22752;51.960;5.886;2023-02-28T17:19:13;4.90;87.30
36800;DHT22;22752;51.960;5.886;2023-02-28T17:21:40;4.80;88.20
36800;DHT22;22752;51.960;5.886;2023-02-28T17:24:07;4.70;87.90
36800;DHT22;22752;51.960;5.886;2023-02-28T17:26:33;4.70;88.30
36800;DHT22;22752;51.960;5.886;2023-02-28T17:28:59;4.50;88.70
36800;DHT22;22752;51.960;5.886;2023-02-28T17:31:26;4.50;89.00
36800;DHT22;22752;51.960;5.886;2023-02-28T17:33:52;4.40;89.40
36800;DHT22;22752;51.960;5.886;2023-02-28T17:36:24;4.50;89.50
36800;DHT22;22752;51.960;5.886;2023-02-28T17:38:52;4.40;89.30
36800;DHT22;22752;51.960;5.886;2023-02-28T17:41:18;4.40;89.50
36800;DHT22;22752;51.960;5.886;2023-02-28T17:43:44;4.30;89.60
36800;DHT22;22752;51.960;5.886;2023-02-28T17:46:20;4.30;89.60
36800;DHT22;22752;51.960;5.886;2023-02-28T17:48:51;4.20;89.90
36800;DHT22;22752;51.960;5.886;2023-02-28T17:51:18;4.10;90.10
36800;DHT22;22752;51.960;5.886;2023-02-28T17:53:44;4.00;90.30
36800;DHT22;22752;51.960;5.886;2023-02-28T17:56:24;4.00;90.40
36800;DHT22;22752;51.960;5.886;2023-02-28T17:58:52;4.00;90.20
36800;DHT22;22752;51.960;5.886;2023-02-28T18:01:18;4.00;90.20
36800;DHT22;22752;51.960;5.886;2023-02-28T18:03:46;4.00;90.10
36800;DHT22;22752;51.960;5.886;2023-02-28T18:06:23;4.10;90.10
36800;DHT22;22752;51.960;5.886;2023-02-28T18:08:49;4.00;90.20
36800;DHT22;22752;51.960;5.886;2023-02-28T18:11:17;4.00;90.10
36800;DHT22;22752;51.960;5.886;2023-02-28T18:13:45;4.00;90.10
36800;DHT22;22752;51.960;5.886;2023-02-28T18:16:11;4.00;90.20
36800;DHT22;22752;51.960;5.886;2023-02-28T18:18:37;3.90;90.30
36800;DHT22;22752;51.960;5.886;2023-02-28T18:21:04;3.80;90.40
36800;DHT22;22752;51.960;5.886;2023-02-28T18:23:31;3.70;90.60
36800;DHT22;22752;51.960;5.886;2023-02-28T18:25:57;3.70;90.80
36800;DHT22;22752;51.960;5.886;2023-02-28T18:28:23;3.60;90.90